Time;durP1;ratioP1;P1;durP2;ratioP2;P2;SDS_P1;SDS_P2;PMS_P1;PMS_P2;Temp;Humidity;BMP_temperature;BMP_pressure;BME280_temperature;BME280_humidity;BME280_pressure;Samples;Min_cycle;Max_cycle;Signal;HPM_P1;HPM_P2
2021/08/09 00:00:47;;;;;;;15.07;8.55;;;615.20;2304.00;;;;;;4974410;28;20027;-81
2021/08/09 00:03:13;;;;;;;14.65;8.27;;;615.10;2329.60;;;;;;4974359;28;20050;-82
2021/08/09 00:05:39;;;;;;;13.95;8.27;;;615.00;2329.60;;;;;;4974159;28;20030;-81
2021/08/09 00:08:05;;;;;;;16.40;8.80;;;615.00;2355.20;;;;;;4974096;28;20031;-81
2021/08/09 00:10:31;;;;;;;15.18;8.27;;;615.00;2355.20;;;;;;4974558;28;20372;-82
2021/08/09 00:12:58;;;;;;;12.43;8.38;;;615.00;2355.20;;;;;;4973987;28;20027;-81
2021/08/09 00:15:24;;;;;;;12.52;8.15;;;615.00;2355.20;;;;;;4974282;28;20029;-81
2021/08/09 00:17:50;;;;;;;10.75;7.90;;;614.90;2380.80;;;;;;4974347;28;20416;-81
2021/08/09 00:20:18;;;;;;;13.45;7.68;;;614.80;2380.80;;;;;;4974086;28;20033;-82
2021/08/09 00:22:45;;;;;;;12.25;8.35;;;614.90;2380.80;;;;;;4974044;28;20021;-82
2021/08/09 00:25:11;;;;;;;11.90;7.82;;;614.90;2380.80;;;;;;4974271;28;20372;-80
2021/08/09 00:27:38;;;;;;;12.18;9.00;;;614.80;2380.80;;;;;;4975035;28;20073;-82
2021/08/09 00:30:05;;;;;;;15.30;10.05;;;614.80;2406.40;;;;;;4974067;28;20026;-82
2021/08/09 00:32:31;;;;;;;16.50;9.73;;;614.90;2406.40;;;;;;4975254;28;20154;-81
2021/08/09 00:34:58;;;;;;;19.42;10.73;;;614.80;2432.00;;;;;;4973854;28;20113;-80
2021/08/09 00:37:24;;;;;;;17.95;10.57;;;614.80;2406.40;;;;;;4973819;28;20528;-81
2021/08/09 00:39:50;;;;;;;16.40;10.57;;;614.90;2406.40;;;;;;4974023;28;20142;-81
2021/08/09 00:42:15;;;;;;;18.13;9.63;;;614.60;2432.00;;;;;;4973888;28;20110;-82
2021/08/09 00:44:43;;;;;;;16.48;10.15;;;614.50;2432.00;;;;;;4974055;28;20046;-83
2021/08/09 00:47:09;;;;;;;13.40;9.65;;;614.50;2432.00;;;;;;4975181;28;20066;-81
2021/08/09 00:49:35;;;;;;;17.40;9.43;;;614.40;2432.00;;;;;;4973746;28;20023;-81
2021/08/09 00:52:01;;;;;;;15.50;9.50;;;614.50;2432.00;;;;;;4973368;28;20503;-82
2021/08/09 00:54:27;;;;;;;17.60;9.48;;;589.70;2432.00;;;;;;4973661;28;20117;-83
2021/08/09 00:56:53;;;;;;;14.00;9.18;;;589.60;2432.00;;;;;;4973828;28;20118;-81
2021/08/09 00:59:19;;;;;;;13.57;8.25;;;589.50;2432.00;;;;;;4973943;28;20481;-82
2021/08/09 01:01:45;;;;;;;14.20;8.93;;;589.40;2432.00;;;;;;4977142;28;20034;-81
2021/08/09 01:04:11;;;;;;;13.15;9.18;;;589.50;2432.00;;;;;;4979093;28;20023;-81
2021/08/09 01:06:38;;;;;;;15.80;8.60;;;589.50;2432.00;;;;;;4978196;28;20523;-81
2021/08/09 01:09:12;;;;;;;13.95;10.15;;;589.30;2432.00;;;;;;4978948;28;20062;-81
2021/08/09 01:12:04;;;;;;;15.80;10.30;;;589.20;2432.00;;;;;;4979538;28;20545;-80
2021/08/09 01:14:51;;;;;;;18.30;8.90;;;589.20;2432.00;;;;;;4994580;28;20035;-81
2021/08/09 01:17:19;;;;;;;17.48;9.40;;;589.10;2432.00;;;;;;4978345;28;20041;-81
2021/08/09 01:20:04;;;;;;;13.70;8.77;;;589.10;2432.00;;;;;;4977980;28;20025;-80
2021/08/09 01:22:54;;;;;;;18.40;8.57;;;589.00;2432.00;;;;;;4977271;28;20027;-81
2021/08/09 01:25:32;;;;;;;14.98;9.05;;;589.20;2432.00;;;;;;4977751;28;20018;-80
2021/08/09 01:27:59;;;;;;;15.88;9.45;;;589.30;2432.00;;;;;;4977273;28;20373;-82
2021/08/09 01:30:26;;;;;;;14.48;9.00;;;589.50;2432.00;;;;;;4977021;28;20027;-80
2021/08/09 01:32:54;;;;;;;15.32;9.65;;;589.60;2432.00;;;;;;4977113;28;20019;-81
2021/08/09 01:35:23;;;;;;;16.75;9.18;;;589.70;2432.00;;;;;;4976915;28;20033;-81
2021/08/09 01:37:54;;;;;;;12.98;8.57;;;589.50;2432.00;;;;;;4976855;28;20022;-80
2021/08/09 01:40:21;;;;;;;12.30;9.02;;;589.40;2432.00;;;;;;4979373;28;20445;-80
2021/08/09 01:42:48;;;;;;;14.30;8.02;;;589.20;2432.00;;;;;;4976740;28;20117;-80
2021/08/09 01:45:15;;;;;;;13.80;8.23;;;589.10;2432.00;;;;;;4976576;28;20104;-80
2021/08/09 01:47:41;;;;;;;15.43;7.97;;;589.10;2432.00;;;;;;4977782;28;20066;-81
2021/08/09 01:50:09;;;;;;;11.82;8.23;;;588.90;2432.00;;;;;;4976552;28;20345;-82
2021/08/09 01:52:37;;;;;;;15.98;8.38;;;588.90;2432.00;;;;;;4976385;28;20058;-81
2021/08/09 01:55:04;;;;;;;18.40;9.05;;;588.90;2432.00;;;;;;4976627;28;20023;-82
2021/08/09 01:57:31;;;;;;;12.48;8.43;;;564.10;2432.00;;;;;;4976281;28;20027;-81
2021/08/09 01:59:57;;;;;;;13.93;9.35;;;564.10;2432.00;;;;;;4976612;28;20034;-81
2021/08/09 02:02:28;;;;;;;13.68;10.38;;;564.10;2432.00;;;;;;4977634;28;20026;-81
2021/08/09 02:04:53;;;;;;;16.33;11.20;;;564.00;2432.00;;;;;;4977179;28;20031;-80
2021/08/09 02:07:20;;;;;;;14.55;9.88;;;564.00;2432.00;;;;;;4977238;28;20468;-80
2021/08/09 02:09:46;;;;;;;11.20;8.75;;;564.00;2432.00;;;;;;4977553;28;20015;-80
2021/08/09 02:12:13;;;;;;;17.70;8.30;;;564.10;2432.00;;;;;;4975553;28;20026;-81
2021/08/09 02:14:46;;;;;;;16.08;8.32;;;564.00;2432.00;;;;;;4975946;28;20465;-82
2021/08/09 02:17:16;;;;;;;11.20;7.80;;;563.90;2432.00;;;;;;4976057;28;20023;-79
2021/08/09 02:19:59;;;;;;;14.75;8.30;;;564.00;2432.00;;;;;;4977091;28;20022;-80
2021/08/09 02:22:30;;;;;;;11.15;7.35;;;564.10;2432.00;;;;;;4976347;28;20117;-79
2021/08/09 02:25:04;;;;;;;14.32;8.80;;;564.10;2432.00;;;;;;4976308;28;20027;-81
2021/08/09 02:27:40;;;;;;;14.45;8.32;;;563.70;2432.00;;;;;;4975527;28;20034;-80
2021/08/09 02:30:08;;;;;;;12.57;7.85;;;563.60;2432.00;;;;;;4975256;28;20025;-81
2021/08/09 02:32:36;;;;;;;13.95;8.38;;;563.60;2432.00;;;;;;4975091;28;20401;-82
2021/08/09 02:35:03;;;;;;;14.05;7.78;;;563.30;2432.00;;;;;;4973005;28;20447;-81
2021/08/09 02:37:30;;;;;;;9.77;7.50;;;563.40;2432.00;;;;;;4975034;28;20031;-80
2021/08/09 02:39:58;;;;;;;10.30;7.28;;;563.60;2432.00;;;;;;4976206;28;20023;-79
2021/08/09 02:42:24;;;;;;;12.00;8.05;;;563.50;2432.00;;;;;;4987518;28;20038;-80
2021/08/09 02:44:51;;;;;;;11.98;8.02;;;563.40;2432.00;;;;;;4985836;28;20027;-79
2021/08/09 02:47:18;;;;;;;12.10;8.10;;;563.30;2432.00;;;;;;4980713;28;20304;-80
2021/08/09 02:49:48;;;;;;;13.15;8.23;;;563.40;2432.00;;;;;;4973328;28;20417;-80
2021/08/09 02:52:16;;;;;;;15.98;8.57;;;563.30;2432.00;;;;;;4975604;28;20093;-81
2021/08/09 02:54:45;;;;;;;13.80;7.18;;;538.50;2406.40;;;;;;4974617;28;20086;-81
2021/08/09 02:57:12;;;;;;;15.65;8.20;;;563.20;2432.00;;;;;;4975207;28;20054;-80
2021/08/09 02:59:38;;;;;;;11.43;7.53;;;538.50;2406.40;;;;;;4975198;28;20023;-81
2021/08/09 03:02:06;;;;;;;15.65;8.55;;;563.20;2432.00;;;;;;4974869;28;20073;-80
2021/08/09 03:04:35;;;;;;;13.77;9.52;;;538.40;2406.40;;;;;;4975418;28;20025;-81
2021/08/09 03:07:06;;;;;;;12.95;8.68;;;538.50;2406.40;;;;;;4974963;28;20026;-80
2021/08/09 03:09:36;;;;;;;16.75;8.75;;;538.50;2406.40;;;;;;4974839;28;20027;-81
2021/08/09 03:12:03;;;;;;;13.65;8.52;;;538.10;2406.40;;;;;;4976241;28;20018;-81
2021/08/09 03:14:31;;;;;;;13.10;8.00;;;538.00;2406.40;;;;;;4974723;28;20026;-81
2021/08/09 03:17:00;;;;;;;12.70;8.15;;;538.40;2406.40;;;;;;4976272;28;20031;-82
2021/08/09 03:19:26;;;;;;;14.57;8.65;;;538.50;2406.40;;;;;;4975632;28;20019;-81
2021/08/09 03:21:57;;;;;;;15.80;8.82;;;537.70;2406.40;;;;;;4977813;28;20453;-81
2021/08/09 03:24:24;;;;;;;13.18;8.00;;;538.00;2406.40;;;;;;4976711;28;20061;-81
2021/08/09 03:26:50;;;;;;;11.95;7.55;;;537.90;2406.40;;;;;;4975006;28;20023;-82
2021/08/09 03:29:17;;;;;;;11.68;8.15;;;537.90;2406.40;;;;;;4995253;28;20074;-80
2021/08/09 03:31:43;;;;;;;13.35;8.38;;;538.10;2406.40;;;;;;4999256;28;20023;-77
2021/08/09 03:34:09;;;;;;;12.02;8.10;;;512.90;2380.80;;;;;;4999322;28;20015;-80
2021/08/09 03:36:37;;;;;;;12.75;9.05;;;537.90;2406.40;;;;;;4999007;28;20011;-80
2021/08/09 03:39:02;;;;;;;15.27;8.27;;;537.60;2406.40;;;;;;4999854;28;20010;-80
2021/08/09 03:41:28;;;;;;;13.63;8.18;;;537.80;2406.40;;;;;;4999102;28;20034;-78
2021/08/09 03:43:54;;;;;;;14.35;7.95;;;537.80;2406.40;;;;;;4998854;28;20078;-79
2021/08/09 03:46:20;;;;;;;14.05;7.93;;;537.90;2406.40;;;;;;4984632;28;20023;-83
2021/08/09 03:48:46;;;;;;;13.32;8.40;;;537.90;2406.40;;;;;;4976736;28;20512;-82
2021/08/09 03:51:11;;;;;;;14.32;8.52;;;538.50;2406.40;;;;;;4976955;28;20047;-81
2021/08/09 03:53:37;;;;;;;12.30;8.15;;;538.30;2406.40;;;;;;4977219;28;20030;-81
2021/08/09 03:56:03;;;;;;;10.07;7.78;;;537.90;2406.40;;;;;;4977494;28;20050;-81
2021/08/09 03:58:29;;;;;;;17.15;8.25;;;538.00;2406.40;;;;;;4977238;28;20471;-81
2021/08/09 04:00:55;;;;;;;12.63;8.13;;;538.20;2406.40;;;;;;4975608;28;20022;-80
2021/08/09 04:03:20;;;;;;;14.20;8.50;;;538.20;2406.40;;;;;;4975538;28;20054;-81
2021/08/09 04:05:46;;;;;;;14.85;8.55;;;537.90;2406.40;;;;;;4974900;28;20397;-81
2021/08/09 04:08:12;;;;;;;12.13;8.77;;;538.00;2406.40;;;;;;4974283;28;20054;-80
2021/08/09 04:10:39;;;;;;;11.15;8.13;;;538.00;2406.40;;;;;;4975114;28;20085;-80
2021/08/09 04:13:04;;;;;;;11.90;8.13;;;538.00;2406.40;;;;;;4974167;28;20106;-81
2021/08/09 04:15:30;;;;;;;16.63;8.13;;;538.00;2406.40;;;;;;4974132;28;20065;-79
2021/08/09 04:17:56;;;;;;;13.15;9.20;;;538.00;2406.40;;;;;;4973922;28;20026;-81
2021/08/09 04:20:22;;;;;;;16.52;9.90;;;538.20;2406.40;;;;;;4973849;28;20166;-81
2021/08/09 04:22:47;;;;;;;11.98;7.90;;;537.90;2406.40;;;;;;4973790;28;20041;-81
2021/08/09 04:25:13;;;;;;;15.20;8.75;;;538.10;2406.40;;;;;;4974808;28;20091;-80
2021/08/09 04:27:39;;;;;;;14.65;8.40;;;537.80;2406.40;;;;;;4973734;28;20144;-81
2021/08/09 04:30:05;;;;;;;16.80;8.95;;;537.70;2406.40;;;;;;4973854;28;20023;-81
2021/08/09 04:32:42;;;;;;;18.50;9.60;;;537.70;2406.40;;;;;;4973623;28;20473;-81
2021/08/09 04:35:09;;;;;;;18.90;9.35;;;537.60;2406.40;;;;;;4973162;28;20026;-82
2021/08/09 04:37:36;;;;;;;18.67;9.00;;;537.60;2406.40;;;;;;4973849;28;20452;-81
2021/08/09 04:40:03;;;;;;;13.63;8.35;;;538.00;2406.40;;;;;;4973430;28;20023;-81
2021/08/09 04:42:28;;;;;;;13.50;9.52;;;538.00;2406.40;;;;;;4974028;28;20110;-80
2021/08/09 04:44:54;;;;;;;15.05;10.35;;;537.90;2406.40;;;;;;4973539;28;20050;-80
2021/08/09 04:47:20;;;;;;;17.10;9.73;;;538.00;2406.40;;;;;;4973118;28;20042;-79
2021/08/09 04:49:46;;;;;;;23.73;11.57;;;538.20;2406.40;;;;;;4973362;28;20033;-80
2021/08/09 04:52:11;;;;;;;19.48;10.65;;;538.30;2406.40;;;;;;4973783;28;20029;-80
2021/08/09 04:54:37;;;;;;;21.50;13.05;;;538.20;2406.40;;;;;;4973544;28;20051;-81
2021/08/09 04:57:03;;;;;;;20.65;11.98;;;538.20;2406.40;;;;;;4973455;28;20427;-82
2021/08/09 04:59:29;;;;;;;22.75;11.80;;;538.20;2406.40;;;;;;4973365;28;20027;-80
2021/08/09 05:01:55;;;;;;;23.23;12.30;;;538.00;2406.40;;;;;;4973702;28;20018;-79
2021/08/09 05:04:20;;;;;;;20.38;12.77;;;538.30;2406.40;;;;;;4973568;28;20027;-80
2021/08/09 05:06:49;;;;;;;20.70;12.82;;;538.50;2406.40;;;;;;4973427;28;20419;-79
2021/08/09 05:09:16;;;;;;;19.05;12.82;;;563.30;2432.00;;;;;;4973399;28;20042;-80
2021/08/09 05:11:41;;;;;;;22.23;12.57;;;538.20;2406.40;;;;;;4973829;28;20050;-80
2021/08/09 05:14:07;;;;;;;19.77;11.85;;;538.40;2406.40;;;;;;4974732;28;20031;-80
2021/08/09 05:16:35;;;;;;;19.40;10.90;;;563.20;2432.00;;;;;;4973691;28;20027;-80
2021/08/09 05:19:03;;;;;;;16.85;10.05;;;538.50;2406.40;;;;;;4973662;28;20031;-80
2021/08/09 05:21:34;;;;;;;18.25;10.18;;;563.20;2432.00;;;;;;4973419;28;20035;-80
2021/08/09 05:24:01;;;;;;;18.05;10.15;;;563.20;2432.00;;;;;;4973553;28;20038;-80
2021/08/09 05:26:27;;;;;;;18.73;9.38;;;563.50;2432.00;;;;;;4974803;28;20023;-80
2021/08/09 05:28:53;;;;;;;15.60;10.02;;;563.60;2432.00;;;;;;4973326;28;20062;-78
2021/08/09 05:31:19;;;;;;;18.02;10.05;;;563.70;2432.00;;;;;;4973316;28;20467;-81
2021/08/09 05:33:45;;;;;;;14.15;9.52;;;563.70;2432.00;;;;;;4974675;28;20050;-81
2021/08/09 05:36:11;;;;;;;18.08;11.05;;;563.70;2432.00;;;;;;4973170;28;20487;-81
2021/08/09 05:38:37;;;;;;;19.35;10.00;;;563.70;2432.00;;;;;;4973619;28;20031;-80
2021/08/09 05:41:04;;;;;;;19.20;10.75;;;563.90;2432.00;;;;;;4973646;28;20027;-81
2021/08/09 05:43:30;;;;;;;24.25;11.32;;;564.00;2432.00;;;;;;4973105;28;20082;-80
2021/08/09 05:45:56;;;;;;;17.88;10.38;;;564.00;2432.00;;;;;;4973712;28;20363;-80
2021/08/09 05:48:22;;;;;;;21.27;11.88;;;564.00;2432.00;;;;;;4976440;28;20130;-81
2021/08/09 05:50:48;;;;;;;20.75;11.13;;;564.10;2432.00;;;;;;4976473;28;20074;-81
2021/08/09 05:53:14;;;;;;;18.33;10.68;;;588.80;2432.00;;;;;;4976818;28;20388;-81
2021/08/09 05:55:40;;;;;;;14.45;9.93;;;588.80;2432.00;;;;;;4976472;28;20030;-80
2021/08/09 05:58:05;;;;;;;15.00;10.18;;;588.80;2432.00;;;;;;4977999;28;20031;-81
2021/08/09 06:00:32;;;;;;;21.23;10.13;;;589.00;2432.00;;;;;;4978328;28;20022;-81
2021/08/09 06:02:57;;;;;;;21.85;9.38;;;589.00;2432.00;;;;;;4986719;28;20029;-80
2021/08/09 06:05:23;;;;;;;18.40;10.05;;;589.30;2432.00;;;;;;4988511;28;20027;-81
2021/08/09 06:07:49;;;;;;;17.52;10.20;;;589.30;2432.00;;;;;;4988771;28;20034;-80
2021/08/09 06:10:15;;;;;;;18.55;8.95;;;589.50;2432.00;;;;;;4988584;28;20027;-78
2021/08/09 06:12:40;;;;;;;17.02;9.48;;;589.50;2432.00;;;;;;4988287;28;20018;-80
2021/08/09 06:15:07;;;;;;;15.70;9.52;;;589.50;2432.00;;;;;;4987987;28;20086;-79
2021/08/09 06:17:34;;;;;;;14.02;8.63;;;589.50;2432.00;;;;;;4986520;28;20026;-80
2021/08/09 06:20:00;;;;;;;17.20;8.68;;;614.40;2432.00;;;;;;4986157;28;20026;-80
2021/08/09 06:22:26;;;;;;;14.25;8.07;;;614.50;2432.00;;;;;;4987353;28;20045;-80
2021/08/09 06:24:52;;;;;;;15.75;8.00;;;614.60;2432.00;;;;;;4982759;28;20058;-81
2021/08/09 06:27:18;;;;;;;12.27;7.75;;;614.60;2432.00;;;;;;4987263;28;20065;-81
2021/08/09 06:29:44;;;;;;;19.67;8.00;;;614.70;2432.00;;;;;;4985599;28;20027;-82
2021/08/09 06:32:10;;;;;;;16.27;7.80;;;614.80;2432.00;;;;;;4976399;28;20022;-81
2021/08/09 06:34:36;;;;;;;10.60;7.38;;;614.90;2432.00;;;;;;4976797;28;20030;-82
2021/08/09 06:37:02;;;;;;;12.60;7.07;;;615.00;2432.00;;;;;;4978011;28;20031;-81
2021/08/09 06:39:28;;;;;;;14.18;7.53;;;615.00;2432.00;;;;;;4986204;28;20022;-80
2021/08/09 06:41:57;;;;;;;12.85;8.32;;;615.20;2432.00;;;;;;4984912;28;20049;-81
2021/08/09 06:44:23;;;;;;;13.43;7.80;;;615.30;2432.00;;;;;;4982666;28;20019;-82
2021/08/09 06:46:49;;;;;;;11.55;8.15;;;640.00;2432.00;;;;;;4987275;28;20019;-81
2021/08/09 06:49:15;;;;;;;16.23;7.85;;;640.20;2432.00;;;;;;4987846;28;20033;-78
2021/08/09 06:51:40;;;;;;;15.90;7.75;;;640.30;2432.00;;;;;;4990821;28;20091;-81
2021/08/09 06:54:06;;;;;;;12.90;7.32;;;640.50;2432.00;;;;;;4997802;28;20073;-79
2021/08/09 06:56:32;;;;;;;16.35;8.23;;;640.50;2432.00;;;;;;4996597;28;20050;-80
2021/08/09 06:58:58;;;;;;;21.02;8.60;;;640.80;2432.00;;;;;;4997028;28;20027;-78
2021/08/09 07:01:24;;;;;;;18.10;7.93;;;640.90;2432.00;;;;;;4997733;28;20011;-79
2021/08/09 07:03:50;;;;;;;11.38;7.30;;;665.60;2432.00;;;;;;4998302;28;20034;-80
2021/08/09 07:06:21;;;;;;;16.42;7.40;;;665.80;2432.00;;;;;;4997454;28;20011;-82
2021/08/09 07:08:47;;;;;;;13.63;7.30;;;665.90;2432.00;;;;;;4982072;28;20548;-80
2021/08/09 07:11:14;;;;;;;16.88;8.23;;;;;;;;;;4979102;28;20023;-81
2021/08/09 07:13:40;;;;;;;16.73;7.90;;;;;;;;;;4976788;28;20023;-80
2021/08/09 07:16:06;;;;;;;15.57;9.00;;;;;;;;;;4978693;28;20018;-80
2021/08/09 07:18:33;;;;;;;13.20;6.95;;;691.30;2432.00;;;;;;4976781;28;20073;-80
2021/08/09 07:20:59;;;;;;;20.52;9.02;;;691.20;2432.00;;;;;;4976599;28;20063;-80
2021/08/09 07:23:25;;;;;;;18.33;8.40;;;691.40;2432.00;;;;;;4975241;28;20027;-79
2021/08/09 07:25:51;;;;;;;18.23;8.38;;;691.60;2432.00;;;;;;4975785;28;20487;-82
2021/08/09 07:28:17;;;;;;;18.85;6.85;;;691.70;2380.80;;;;;;4975328;28;20038;-79
2021/08/09 07:30:42;;;;;;;13.43;7.03;;;691.80;2355.20;;;;;;4975321;28;20027;-79
2021/08/09 07:33:08;;;;;;;13.43;7.47;;;691.90;2304.00;;;;;;4974630;28;20468;-82
2021/08/09 07:35:34;;;;;;;13.07;7.25;;;692.10;2304.00;;;;;;4975550;28;20110;-82
2021/08/09 07:38:00;;;;;;;15.02;7.30;;;717.00;2278.40;;;;;;4975052;28;20533;-80
2021/08/09 07:40:26;;;;;;;12.25;6.95;;;716.90;2432.00;;;;;;4974847;28;20027;-80
2021/08/09 07:42:52;;;;;;;12.70;7.63;;;717.40;2252.80;;;;;;4961097;28;20373;-80
2021/08/09 07:45:18;;;;;;;20.15;8.40;;;717.40;2227.20;;;;;;4955496;28;20027;-82
2021/08/09 07:47:43;;;;;;;18.25;8.88;;;717.60;2176.00;;;;;;4955681;28;20035;-83
2021/08/09 07:50:10;;;;;;;14.57;7.30;;;742.40;2150.40;;;;;;4957017;28;20118;-80
2021/08/09 07:52:37;;;;;;;15.25;7.53;;;742.50;2150.40;;;;;;4957342;29;20058;-81
2021/08/09 07:55:03;;;;;;;11.27;7.10;;;742.40;2150.40;;;;;;4956390;29;20027;-81
2021/08/09 07:57:29;;;;;;;19.33;7.35;;;742.70;2099.20;;;;;;4973232;28;20038;-81
2021/08/09 07:59:55;;;;;;;16.30;9.07;;;742.90;2073.60;;;;;;4955740;29;20019;-83
2021/08/09 08:02:20;;;;;;;10.35;6.40;;;743.00;1996.80;;;;;;4956826;29;20024;-81
2021/08/09 08:04:46;;;;;;;8.70;5.32;;;743.10;1945.60;;;;;;4960775;29;20514;-81
2021/08/09 08:07:12;;;;;;;9.15;6.07;;;743.20;1920.00;;;;;;4955613;29;20027;-83
2021/08/09 08:09:38;;;;;;;14.43;8.57;;;743.30;1894.40;;;;;;4954842;28;20047;-82
2021/08/09 08:12:04;;;;;;;10.10;6.85;;;768.20;1894.40;;;;;;4955069;29;20487;-83
2021/08/09 08:14:30;;;;;;;12.43;6.53;;;768.30;1843.20;;;;;;4955360;29;20029;-81
2021/08/09 08:16:56;;;;;;;18.80;6.55;;;768.50;1792.00;;;;;;4955112;29;20114;-82
2021/08/09 08:19:22;;;;;;;15.80;7.32;;;768.70;1792.00;;;;;;4954947;29;20343;-81
2021/08/09 08:21:48;;;;;;;14.82;8.02;;;768.70;1792.00;;;;;;4954679;29;20027;-82
2021/08/09 08:24:14;;;;;;;14.10;7.43;;;793.70;1843.20;;;;;;4954508;29;20338;-81
2021/08/09 08:26:40;;;;;;;18.05;6.72;;;768.90;1817.60;;;;;;4954726;29;20019;-80
2021/08/09 08:29:06;;;;;;;12.00;7.57;;;768.80;1817.60;;;;;;4953947;29;20420;-81
2021/08/09 08:31:32;;;;;;;12.45;6.55;;;768.90;1817.60;;;;;;4952254;29;20019;-82
2021/08/09 08:33:58;;;;;;;14.23;8.32;;;793.80;1843.20;;;;;;4950390;29;20477;-81
2021/08/09 08:36:23;;;;;;;10.38;6.50;;;794.00;1843.20;;;;;;4969948;28;20033;-82
2021/08/09 08:38:49;;;;;;;11.50;7.05;;;793.90;1766.40;;;;;;4952125;29;20154;-83
2021/08/09 08:41:16;;;;;;;11.68;7.30;;;794.20;1792.00;;;;;;4954502;29;20083;-82
2021/08/09 08:43:42;;;;;;;16.30;7.80;;;794.20;1740.80;;;;;;4954193;29;20023;-85
2021/08/09 08:46:09;;;;;;;15.77;9.07;;;794.40;1740.80;;;;;;4954292;29;20023;-82
2021/08/09 08:48:36;;;;;;;11.63;7.30;;;819.30;1740.80;;;;;;4954463;29;20050;-83
2021/08/09 08:51:03;;;;;;;11.55;7.32;;;819.20;1715.20;;;;;;4963658;28;20069;-83
2021/08/09 08:53:34;;;;;;;17.00;6.75;;;819.30;1715.20;;;;;;4973549;28;20042;-81
2021/08/09 08:56:03;;;;;;;14.10;8.10;;;819.70;1715.20;;;;;;4973507;28;20019;-80
2021/08/09 08:58:29;;;;;;;15.70;7.78;;;819.90;1715.20;;;;;;4973371;28;20054;-80
2021/08/09 09:00:54;;;;;;;14.63;6.78;;;844.80;1740.80;;;;;;4973947;28;20023;-81
2021/08/09 09:03:23;;;;;;;13.63;7.18;;;844.80;1715.20;;;;;;4975214;28;20026;-81
2021/08/09 09:06:01;;;;;;;14.20;7.53;;;844.90;1715.20;;;;;;4973506;28;20053;-85
2021/08/09 09:08:49;;;;;;;18.25;7.30;;;845.20;1689.60;;;;;;4974180;28;20037;-80
2021/08/09 09:11:24;;;;;;;14.45;7.82;;;845.00;1664.00;;;;;;4973227;28;20125;-81
2021/08/09 09:13:57;;;;;;;11.65;7.63;;;845.20;1664.00;;;;;;4974037;28;20026;-80
2021/08/09 09:16:24;;;;;;;14.95;9.18;;;845.40;1612.80;;;;;;4973634;28;20023;-82
2021/08/09 09:18:57;;;;;;;13.50;8.52;;;845.10;2432.00;;;;;;4973218;28;20457;-82
2021/08/09 09:21:25;;;;;;;10.77;7.40;;;845.70;1561.60;;;;;;4974823;28;20023;-82
2021/08/09 09:24:06;;;;;;;12.73;7.65;;;845.70;1561.60;;;;;;4977826;28;20456;-82
2021/08/09 09:26:32;;;;;;;12.70;7.90;;;870.40;1612.80;;;;;;4978597;28;20023;-80
2021/08/09 09:29:06;;;;;;;13.18;7.35;;;870.60;1587.20;;;;;;4978810;28;20026;-82
2021/08/09 09:31:32;;;;;;;15.60;9.02;;;870.80;1561.60;;;;;;4979604;28;20034;-81
2021/08/09 09:34:02;;;;;;;23.63;14.15;;;870.70;1561.60;;;;;;4993608;28;20522;-79
2021/08/09 09:36:43;;;;;;;13.80;8.50;;;871.00;1587.20;;;;;;4977285;28;20165;-82
2021/08/09 09:39:26;;;;;;;12.88;7.88;;;871.10;1587.20;;;;;;4977347;28;20026;-81
2021/08/09 09:41:52;;;;;;;14.82;9.15;;;871.20;1536.00;;;;;;4993432;28;20460;-81
2021/08/09 09:44:26;;;;;;;11.15;6.93;;;896.00;1510.40;;;;;;4977352;28;20062;-84
2021/08/09 09:46:52;;;;;;;15.35;7.95;;;871.30;1536.00;;;;;;4976881;28;20022;-80
2021/08/09 09:49:35;;;;;;;17.10;7.68;;;921.60;1536.00;;;;;;4976413;28;20042;-83
2021/08/09 09:52:01;;;;;;;10.65;7.57;;;896.50;1510.40;;;;;;4976324;28;20055;-84
2021/08/09 09:54:27;;;;;;;13.23;8.98;;;896.60;1459.20;;;;;;4976533;28;20019;-83
2021/08/09 09:56:57;;;;;;;14.82;8.13;;;896.60;1484.80;;;;;;4977056;28;20022;-83
2021/08/09 09:59:26;;;;;;;16.17;10.85;;;896.70;1484.80;;;;;;4977040;28;20023;-83
2021/08/09 10:01:52;;;;;;;14.25;9.90;;;896.80;1484.80;;;;;;4976563;28;20073;-82
2021/08/09 10:04:19;;;;;;;15.25;9.90;;;921.60;1484.80;;;;;;4976492;28;20468;-82
2021/08/09 10:06:47;;;;;;;15.55;9.45;;;921.80;1510.40;;;;;;4976571;28;20029;-83
2021/08/09 10:09:14;;;;;;;15.27;9.15;;;921.80;1484.80;;;;;;4976535;28;20465;-84
2021/08/09 10:11:44;;;;;;;13.88;10.95;;;922.10;1510.40;;;;;;4976595;28;20023;-83
2021/08/09 10:14:10;;;;;;;13.13;7.07;;;922.40;1459.20;;;;;;4976885;28;20037;-84
2021/08/09 10:16:38;;;;;;;10.75;6.35;;;922.50;1433.60;;;;;;4976285;28;20027;-84
2021/08/09 10:19:06;;;;;;;12.57;5.90;;;922.50;1459.20;;;;;;4976515;28;20052;-82
2021/08/09 10:21:33;;;;;;;10.80;6.50;;;947.30;1459.20;;;;;;4976335;28;20253;-82
2021/08/09 10:23:59;;;;;;;13.15;6.00;;;947.60;1433.60;;;;;;4976495;28;20027;-83
2021/08/09 10:26:31;;;;;;;12.07;6.18;;;947.60;1433.60;;;;;;4976535;28;20023;-82
2021/08/09 10:29:01;;;;;;;9.10;6.75;;;947.80;1433.60;;;;;;4976197;28;20038;-86
2021/08/09 10:31:35;;;;;;;14.52;7.30;;;947.40;1433.60;;;;;;4976349;28;20541;-82
2021/08/09 10:34:04;;;;;;;9.77;6.32;;;947.80;1433.60;;;;;;4974830;28;20026;-82
2021/08/09 10:37:07;;;;;;;7.47;4.55;;;948.10;1459.20;;;;;;4975674;28;20030;-86
2021/08/09 10:39:53;;;;;;;7.43;4.65;;;948.10;1382.40;;;;;;4971376;28;20019;-86
2021/08/09 10:42:39;;;;;;;10.50;5.97;;;972.80;1408.00;;;;;;4956082;29;20046;-82
2021/08/09 10:45:41;;;;;;;8.77;5.18;;;973.00;1459.20;;;;;;4956268;29;20019;-82
2021/08/09 10:48:09;;;;;;;11.05;6.50;;;972.90;1433.60;;;;;;4955977;29;20038;-83
2021/08/09 10:50:39;;;;;;;13.00;6.22;;;948.10;1408.00;;;;;;4988034;28;20088;-82
2021/08/09 10:53:28;;;;;;;13.93;6.72;;;972.80;1408.00;;;;;;4985114;28;20069;-84
2021/08/09 10:55:58;;;;;;;11.60;5.90;;;948.10;1408.00;;;;;;4988500;28;20113;-83
2021/08/09 10:58:42;;;;;;;7.75;4.63;;;973.00;1433.60;;;;;;4997906;28;20033;-83
2021/08/09 11:01:09;;;;;;;12.75;5.13;;;948.10;1382.40;;;;;;4997875;28;20088;-85
2021/08/09 11:04:01;;;;;;;8.45;5.32;;;973.00;1433.60;;;;;;4977873;28;20033;-86
2021/08/09 11:06:44;;;;;;;12.57;5.72;;;973.30;1408.00;;;;;;4977892;28;20034;-84
2021/08/09 11:09:37;;;;;;;10.95;4.93;;;973.30;1408.00;;;;;;4994739;28;20096;-82
2021/08/09 11:12:08;;;;;;;12.88;5.40;;;973.70;1382.40;;;;;;4998843;28;20087;-84
2021/08/09 11:15:03;;;;;;;12.60;7.93;;;998.60;1382.40;;;;;;4998010;28;20064;-81
2021/08/09 11:17:47;;;;;;;10.95;7.88;;;998.70;1356.80;;;;;;4972901;28;20057;-82
2021/08/09 11:20:42;;;;;;;13.32;5.30;;;999.00;1382.40;;;;;;4977837;28;20023;-82
2021/08/09 11:23:10;;;;;;;7.47;5.20;;;998.90;1356.80;;;;;;4985315;28;20104;-81
2021/08/09 11:25:38;;;;;;;8.63;4.82;;;999.00;1356.80;;;;;;4978110;28;20025;-84
2021/08/09 11:28:17;;;;;;;8.68;4.78;;;999.10;1356.80;;;;;;4978122;28;20030;-82
2021/08/09 11:30:52;;;;;;;6.80;4.70;;;999.30;1305.60;;;;;;4977852;28;20072;-82
2021/08/09 11:33:30;;;;;;;8.40;5.25;;;999.30;1305.60;;;;;;4974652;28;20116;-84
2021/08/09 11:36:08;;;;;;;11.68;5.00;;;1024.00;1331.20;;;;;;4977735;28;20034;-82
2021/08/09 11:38:53;;;;;;;10.15;5.45;;;999.30;1305.60;;;;;;4977582;28;20465;-82
2021/08/09 11:41:22;;;;;;;8.70;5.13;;;1024.00;1331.20;;;;;;4977749;28;20081;-82
2021/08/09 11:43:49;;;;;;;7.63;4.50;;;1024.10;1305.60;;;;;;4977188;28;20034;-83
2021/08/09 11:46:18;;;;;;;10.35;4.85;;;1024.10;1280.00;;;;;;4977414;28;20018;-81
2021/08/09 11:48:49;;;;;;;10.52;4.45;;;1024.00;1305.60;;;;;;4977154;28;20357;-83
2021/08/09 11:51:26;;;;;;;11.47;5.67;;;1024.10;1331.20;;;;;;4976907;28;20038;-82
2021/08/09 11:53:54;;;;;;;9.00;4.82;;;1024.10;1305.60;;;;;;4977038;28;20264;-84
2021/08/09 11:56:24;;;;;;;9.32;5.85;;;1024.30;1305.60;;;;;;4977357;28;20030;-81
2021/08/09 11:58:50;;;;;;;12.10;7.82;;;1024.50;1305.60;;;;;;4976939;28;20023;-83
2021/08/09 12:01:33;;;;;;;11.75;6.30;;;1024.40;1331.20;;;;;;4977114;28;20072;-82
2021/08/09 12:04:03;;;;;;;11.10;6.68;;;1024.40;1280.00;;;;;;4977287;28;20185;-81
2021/08/09 12:06:31;;;;;;;6.80;5.10;;;1024.50;1305.60;;;;;;4975428;28;20053;-83
2021/08/09 12:08:58;;;;;;;15.48;11.25;;;1024.30;1331.20;;;;;;4976933;28;20050;-82
2021/08/09 12:11:32;;;;;;;23.20;13.60;;;1024.50;1305.60;;;;;;4977801;28;20113;-85
2021/08/09 12:14:05;;;;;;;9.50;6.00;;;1024.60;1408.00;;;;;;4979281;28;20030;-82
2021/08/09 12:16:45;;;;;;;10.57;5.85;;;1024.90;1408.00;;;;;;5009541;28;20027;-83